createdAt,value
2023-03-18T00:01:51.879Z,0.99
2023-03-18T00:04:19.633Z,1.15
2023-03-18T00:06:46.104Z,0.78
2023-03-18T00:09:13.941Z,0.78
2023-03-18T00:11:40.634Z,1.10
2023-03-18T00:14:08.665Z,0.75
2023-03-18T00:16:36.683Z,0.40
2023-03-18T00:19:04.462Z,0.71
2023-03-18T00:21:31.651Z,0.88
2023-03-18T00:23:58.759Z,1.02
2023-03-18T00:26:25.867Z,0.91
2023-03-18T00:28:52.715Z,1.05
2023-03-18T00:31:19.764Z,1.08
2023-03-18T00:33:46.435Z,1.07
2023-03-18T00:36:16.465Z,1.01
2023-03-18T00:38:43.779Z,0.90
2023-03-18T00:41:15.798Z,0.80
2023-03-18T00:43:49.239Z,0.84
2023-03-18T00:46:17.674Z,0.97
2023-03-18T00:48:44.652Z,1.07
2023-03-18T00:51:14.087Z,0.54
2023-03-18T00:53:41.867Z,0.71
2023-03-18T00:56:08.680Z,0.93
2023-03-18T00:58:36.838Z,0.60
2023-03-18T01:01:05.001Z,0.18
2023-03-18T01:03:31.716Z,0.28
2023-03-18T01:05:58.841Z,0.16
2023-03-18T01:08:25.616Z,0.01
2023-03-18T01:10:52.608Z,-0.17
2023-03-18T01:13:19.397Z,-0.13
2023-03-18T01:15:45.900Z,0.03
2023-03-18T01:18:12.399Z,0.29
2023-03-18T01:20:38.958Z,0.24
2023-03-18T01:23:06.125Z,0.43
2023-03-18T01:25:32.657Z,0.04
2023-03-18T01:27:59.487Z,-0.04
2023-03-18T01:30:26.016Z,-0.17
2023-03-18T01:32:52.627Z,-0.17
2023-03-18T01:35:20.091Z,-0.13
2023-03-18T01:37:46.831Z,0.22
2023-03-18T01:40:14.343Z,0.09
2023-03-18T01:42:41.002Z,-0.17
2023-03-18T01:45:19.648Z,-0.03
2023-03-18T01:47:46.548Z,0.05
2023-03-18T01:50:15.566Z,0.08
2023-03-18T01:52:42.339Z,-0.08
2023-03-18T01:55:12.617Z,-0.05
2023-03-18T01:57:39.090Z,-0.12
2023-03-18T02:00:06.149Z,0.08
2023-03-18T02:02:32.864Z,-0.06
2023-03-18T02:05:02.509Z,0.12
2023-03-18T02:07:34.831Z,-0.06
2023-03-18T02:10:10.959Z,-0.14
2023-03-18T02:12:38.589Z,0.08
2023-03-18T02:15:10.430Z,-0.24
2023-03-18T02:17:46.904Z,-0.26
2023-03-18T02:20:19.764Z,-0.33
2023-03-18T02:22:53.451Z,-0.08
2023-03-18T02:25:51.157Z,-0.38
2023-03-18T02:28:20.279Z,-0.23
2023-03-18T02:30:48.093Z,-0.07
2023-03-18T02:33:15.887Z,-0.07
2023-03-18T02:35:43.244Z,0.04
2023-03-18T02:38:09.684Z,-0.08
2023-03-18T02:40:37.978Z,-0.21
2023-03-18T02:43:22.468Z,-0.10
2023-03-18T02:46:16.760Z,-0.45
2023-03-18T02:48:45.051Z,-0.34
2023-03-18T02:51:12.642Z,-0.60
2023-03-18T02:53:39.163Z,-0.82
2023-03-18T02:56:07.027Z,-0.86
2023-03-18T02:58:33.872Z,-0.84
2023-03-18T03:01:01.237Z,-0.46
2023-03-18T03:03:29.141Z,-0.74
2023-03-18T03:05:56.252Z,-0.55
2023-03-18T03:08:23.261Z,-0.59
2023-03-18T03:10:51.135Z,-0.75
2023-03-18T03:13:18.133Z,-0.82
2023-03-18T03:15:44.664Z,-0.70
2023-03-18T03:18:11.568Z,-0.65
2023-03-18T03:20:38.978Z,-0.53
2023-03-18T03:23:06.523Z,-0.67
2023-03-18T03:25:34.176Z,-0.78
2023-03-18T03:28:00.653Z,-0.40
2023-03-18T03:30:27.759Z,-0.56
2023-03-18T03:32:54.280Z,-0.53
2023-03-18T03:35:20.826Z,-0.30
2023-03-18T03:37:48.025Z,-0.64
2023-03-18T03:40:16.991Z,-0.75
2023-03-18T03:42:43.696Z,-0.88
2023-03-18T03:45:10.667Z,-0.74
2023-03-18T03:47:37.421Z,-0.72
2023-03-18T03:50:05.821Z,-0.78
2023-03-18T03:52:32.887Z,-0.46
2023-03-18T03:55:00.711Z,-0.74
2023-03-18T03:57:27.703Z,-0.84
2023-03-18T03:59:54.256Z,-0.74
2023-03-18T04:02:23.715Z,-0.47
2023-03-18T04:04:50.459Z,-0.73
2023-03-18T04:07:16.962Z,-0.80
2023-03-18T04:09:43.485Z,-0.58
2023-03-18T04:12:10.265Z,-0.75
2023-03-18T04:14:36.751Z,-0.61
2023-03-18T04:17:03.338Z,-0.35
2023-03-18T04:19:30.341Z,-0.49
2023-03-18T04:21:56.864Z,-0.86
2023-03-18T04:24:23.531Z,-0.73
2023-03-18T04:26:50.283Z,-0.56
2023-03-18T04:29:16.762Z,-0.59
2023-03-18T04:31:43.317Z,-0.34
2023-03-18T04:34:09.858Z,-0.36
2023-03-18T04:36:36.390Z,-0.58
2023-03-18T04:39:03.034Z,-0.67
2023-03-18T04:41:29.493Z,-0.54
2023-03-18T04:43:55.986Z,-0.63
2023-03-18T04:46:22.568Z,-0.60
2023-03-18T04:48:49.073Z,-0.80
2023-03-18T04:51:15.531Z,-0.71
2023-03-18T04:53:42.121Z,-0.40
2023-03-18T04:56:08.898Z,-0.69
2023-03-18T04:58:35.457Z,-0.69
2023-03-18T05:01:02.164Z,-0.55
2023-03-18T05:03:28.779Z,-0.54
2023-03-18T05:05:55.264Z,-0.52
2023-03-18T05:08:21.791Z,-0.62
2023-03-18T05:10:49.744Z,-0.53
2023-03-18T05:13:17.467Z,-0.39
2023-03-18T05:15:44.052Z,-0.29
2023-03-18T05:18:10.562Z,-0.25
2023-03-18T05:20:37.065Z,-0.30
2023-03-18T05:23:04.271Z,-0.27
2023-03-18T05:25:31.722Z,-0.52
2023-03-18T05:27:58.615Z,-0.44
2023-03-18T05:30:25.215Z,-0.32
2023-03-18T05:32:51.738Z,-0.27
2023-03-18T05:35:19.276Z,-0.28
2023-03-18T05:37:46.678Z,-0.25
2023-03-18T05:40:13.314Z,-0.16
2023-03-18T05:42:55.050Z,-0.13
2023-03-18T05:45:22.302Z,-0.20
2023-03-18T05:47:48.790Z,-0.04
2023-03-18T05:50:27.121Z,0.22
2023-03-18T05:52:53.754Z,-0.14
2023-03-18T05:55:20.288Z,0.34
2023-03-18T05:57:48.678Z,0.02
2023-03-18T06:00:15.659Z,0.22
2023-03-18T06:02:42.215Z,0.69
2023-03-18T06:05:09.046Z,0.70
2023-03-18T06:07:35.530Z,0.60
2023-03-18T06:10:02.066Z,0.57
2023-03-18T06:12:28.793Z,0.60
2023-03-18T06:14:55.282Z,0.75
2023-03-18T06:17:21.932Z,0.91
2023-03-18T06:19:48.637Z,0.92
2023-03-18T06:22:16.737Z,1.11
2023-03-18T06:24:43.816Z,1.15
2023-03-18T06:27:10.359Z,1.35
2023-03-18T06:29:36.921Z,1.42
2023-03-18T06:32:03.699Z,1.48
2023-03-18T06:34:30.531Z,1.45
2023-03-18T06:36:57.236Z,1.46
2023-03-18T06:39:23.828Z,1.51
2023-03-18T06:41:51.134Z,1.59
2023-03-18T06:44:17.684Z,1.64
2023-03-18T06:46:44.357Z,1.72
2023-03-18T06:49:11.515Z,1.78
2023-03-18T06:51:38.032Z,1.86
2023-03-18T06:54:05.719Z,1.94
2023-03-18T06:56:34.450Z,2.01
2023-03-18T06:59:00.927Z,2.10
2023-03-18T07:01:30.068Z,2.19
2023-03-18T07:03:58.268Z,2.20
2023-03-18T07:06:24.928Z,2.29
2023-03-18T07:08:51.416Z,2.38
2023-03-18T07:11:18.313Z,2.46
2023-03-18T07:13:45.051Z,2.58
2023-03-18T07:16:11.602Z,2.73
2023-03-18T07:18:38.669Z,2.83
2023-03-18T07:21:05.442Z,2.86
2023-03-18T07:23:32.373Z,2.89
2023-03-18T07:25:58.903Z,3.00
2023-03-18T07:28:25.454Z,3.05
2023-03-18T07:30:54.067Z,3.07
2023-03-18T07:33:21.010Z,3.25
2023-03-18T07:35:48.367Z,3.39
2023-03-18T07:38:14.884Z,3.65
2023-03-18T07:40:42.031Z,3.77
2023-03-18T07:43:09.166Z,3.76
2023-03-18T07:45:35.653Z,3.95
2023-03-18T07:48:02.240Z,4.20
2023-03-18T07:50:28.824Z,4.34
2023-03-18T07:52:55.387Z,4.57
2023-03-18T07:55:21.928Z,4.72
2023-03-18T07:57:49.083Z,4.80
2023-03-18T08:00:15.932Z,4.90
2023-03-18T08:02:42.728Z,5.05
2023-03-18T08:05:09.796Z,5.23
2023-03-18T08:07:36.356Z,5.34
2023-03-18T08:10:03.048Z,5.58
2023-03-18T08:12:38.393Z,5.76
2023-03-18T08:15:12.001Z,5.71
2023-03-18T08:17:38.938Z,5.80
2023-03-18T08:20:06.286Z,5.82
2023-03-18T08:22:32.856Z,6.08
2023-03-18T08:24:59.373Z,6.06
2023-03-18T08:27:25.903Z,6.15
2023-03-18T08:29:52.473Z,6.19
2023-03-18T08:32:19.423Z,6.32
2023-03-18T08:34:46.567Z,6.37
2023-03-18T08:37:13.071Z,6.50
2023-03-18T08:39:39.608Z,6.59
2023-03-18T08:42:06.384Z,6.61
2023-03-18T08:44:33.375Z,6.71
2023-03-18T08:47:00.271Z,6.76
2023-03-18T08:49:26.774Z,6.80
2023-03-18T08:51:53.462Z,6.89
2023-03-18T08:54:20.218Z,7.08
2023-03-18T08:56:47.454Z,7.15
2023-03-18T08:59:14.051Z,7.16
2023-03-18T09:01:40.595Z,7.23
2023-03-18T09:04:07.239Z,7.25
2023-03-18T09:06:34.008Z,7.26
2023-03-18T09:09:00.516Z,7.34
2023-03-18T09:11:27.908Z,7.44
2023-03-18T09:13:54.638Z,7.56
2023-03-18T09:16:21.196Z,7.60
2023-03-18T09:18:48.846Z,7.63
2023-03-18T09:21:15.540Z,7.73
2023-03-18T09:23:42.002Z,7.78
2023-03-18T09:26:08.592Z,7.82
2023-03-18T09:28:35.199Z,7.94
2023-03-18T09:31:01.829Z,8.01
2023-03-18T09:33:28.367Z,8.12
2023-03-18T09:35:55.433Z,8.24
2023-03-18T09:38:22.426Z,8.26
2023-03-18T09:41:10.435Z,8.26
2023-03-18T09:44:19.856Z,8.31
2023-03-18T09:47:18.652Z,8.44
2023-03-18T09:49:57.599Z,8.70
2023-03-18T09:52:32.882Z,8.78
2023-03-18T09:55:21.508Z,8.87
2023-03-18T09:57:48.407Z,8.97
2023-03-18T10:00:36.960Z,8.96
2023-03-18T10:03:09.852Z,8.88
2023-03-18T10:05:43.183Z,8.86
2023-03-18T10:08:31.270Z,9.06
2023-03-18T10:10:57.755Z,9.13
2023-03-18T10:13:45.631Z,9.10
2023-03-18T10:16:15.370Z,9.13
2023-03-18T10:18:43.292Z,9.28
2023-03-18T10:21:42.083Z,9.38
2023-03-18T10:24:56.050Z,9.49
2023-03-18T10:27:38.386Z,9.35
2023-03-18T10:30:29.608Z,9.38
2023-03-18T10:33:01.769Z,9.35
2023-03-18T10:35:40.334Z,9.39
2023-03-18T10:38:23.468Z,9.49
2023-03-18T10:40:50.059Z,9.57
2023-03-18T10:43:19.457Z,9.57
2023-03-18T10:45:46.965Z,9.62
2023-03-18T10:48:27.292Z,9.64
2023-03-18T10:51:07.627Z,9.74
2023-03-18T10:53:39.109Z,9.86
2023-03-18T10:56:10.559Z,10.01
2023-03-18T10:58:40.601Z,10.20
2023-03-18T11:01:07.981Z,10.47
2023-03-18T11:03:36.493Z,10.45
2023-03-18T11:06:04.672Z,10.56
2023-03-18T11:08:34.294Z,10.77
2023-03-18T11:11:33.402Z,10.77
2023-03-18T11:14:01.723Z,11.50
2023-03-18T11:16:50.007Z,11.48
2023-03-18T11:19:37.410Z,11.36
2023-03-18T11:22:13.889Z,11.60
2023-03-18T11:24:42.690Z,11.50
2023-03-18T11:27:18.153Z,11.59
2023-03-18T11:29:54.838Z,11.54
2023-03-18T11:32:34.221Z,11.64
2023-03-18T11:35:02.307Z,11.66
2023-03-18T11:37:37.343Z,11.94
2023-03-18T11:40:23.596Z,12.03
2023-03-18T11:42:54.850Z,11.88
2023-03-18T11:45:51.147Z,11.94
2023-03-18T11:48:40.348Z,11.99
2023-03-18T11:51:44.513Z,12.12
2023-03-18T11:54:24.352Z,12.54
2023-03-18T11:57:08.650Z,12.29
2023-03-18T11:59:58.979Z,12.24
2023-03-18T12:02:45.172Z,12.46
2023-03-18T12:05:31.272Z,13.15
2023-03-18T12:08:09.745Z,13.40
2023-03-18T12:10:48.213Z,13.44
2023-03-18T12:13:31.503Z,13.36
2023-03-18T12:16:25.294Z,13.80
2023-03-18T12:19:16.634Z,14.06
2023-03-18T12:22:01.657Z,14.04
2023-03-18T12:24:38.201Z,14.10
2023-03-18T12:27:20.172Z,14.17
2023-03-18T12:30:05.168Z,14.35
2023-03-18T12:32:42.568Z,14.39
2023-03-18T12:35:28.998Z,14.43
2023-03-18T12:38:23.249Z,14.54
2023-03-18T12:41:09.144Z,14.67
2023-03-18T12:43:54.930Z,14.52
2023-03-18T12:46:30.446Z,14.82
2023-03-18T12:49:19.761Z,14.81
2023-03-18T12:51:56.275Z,15.08
2023-03-18T12:54:27.785Z,15.22
2023-03-18T12:56:58.801Z,14.97
2023-03-18T12:59:53.363Z,14.91
2023-03-18T13:02:45.464Z,15.04
2023-03-18T13:05:24.703Z,15.11
2023-03-18T13:08:18.736Z,15.45
2023-03-18T13:10:46.666Z,15.52
2023-03-18T13:13:13.249Z,15.54
2023-03-18T13:15:47.405Z,15.66
2023-03-18T13:18:17.292Z,15.83
2023-03-18T13:20:43.783Z,15.86
2023-03-18T13:23:22.929Z,15.86
2023-03-18T13:26:11.302Z,15.58
2023-03-18T13:29:11.805Z,15.75
2023-03-18T13:31:53.786Z,15.86
2023-03-18T13:34:40.510Z,15.77
2023-03-18T13:37:08.310Z,16.06
2023-03-18T13:40:03.940Z,16.14
2023-03-18T13:42:34.340Z,15.92
2023-03-18T13:45:06.883Z,16.09
2023-03-18T13:47:34.691Z,16.02
2023-03-18T13:50:25.593Z,16.25
2023-03-18T13:52:54.549Z,16.41
2023-03-18T13:55:35.926Z,16.46
2023-03-18T13:58:09.242Z,16.34
2023-03-18T14:00:42.851Z,16.22
2023-03-18T14:03:22.878Z,15.88
2023-03-18T14:06:10.399Z,15.79
2023-03-18T14:08:39.565Z,15.99
2023-03-18T14:11:19.707Z,15.82
2023-03-18T14:14:00.589Z,15.81
2023-03-18T14:16:37.838Z,15.76
2023-03-18T14:19:33.640Z,15.56
2023-03-18T14:22:08.326Z,15.55
2023-03-18T14:24:35.032Z,15.68
2023-03-18T14:27:04.337Z,15.71
2023-03-18T14:29:36.734Z,15.33
2023-03-18T14:32:08.387Z,15.40
2023-03-18T14:34:56.505Z,15.42
2023-03-18T14:37:32.875Z,15.12
2023-03-18T14:40:19.704Z,15.24
2023-03-18T14:42:53.619Z,15.39
2023-03-18T14:45:21.817Z,15.21
2023-03-18T14:47:55.397Z,15.19
2023-03-18T14:50:31.182Z,15.12
2023-03-18T14:53:05.007Z,14.73
2023-03-18T14:55:34.223Z,14.54
2023-03-18T14:58:01.229Z,14.71
2023-03-18T15:00:28.967Z,14.50
2023-03-18T15:03:01.710Z,14.28
2023-03-18T15:05:32.399Z,14.20
2023-03-18T15:07:58.977Z,14.15
2023-03-18T15:10:26.620Z,14.13
2023-03-18T15:13:21.778Z,14.02
2023-03-18T15:15:48.776Z,14.02
2023-03-18T15:18:19.948Z,13.98
2023-03-18T15:20:57.394Z,13.88
2023-03-18T15:23:48.264Z,13.96
2023-03-18T15:26:22.153Z,13.82
2023-03-18T15:28:48.834Z,13.77
2023-03-18T15:31:26.290Z,13.71
2023-03-18T15:34:04.778Z,13.67
2023-03-18T15:36:31.330Z,13.71
2023-03-18T15:38:57.898Z,13.71
2023-03-18T15:41:25.592Z,13.67
2023-03-18T15:43:52.211Z,13.67
2023-03-18T15:46:27.205Z,13.54
2023-03-18T15:48:57.295Z,13.49
2023-03-18T15:51:26.365Z,13.55
2023-03-18T15:53:54.832Z,13.45
2023-03-18T15:56:29.687Z,13.32
2023-03-18T15:59:06.950Z,13.25
2023-03-18T16:01:35.082Z,13.20
2023-03-18T16:04:02.920Z,13.23
2023-03-18T16:06:29.469Z,13.00
2023-03-18T16:08:56.538Z,12.92
2023-03-18T16:11:24.845Z,12.94
2023-03-18T16:13:52.278Z,12.91
2023-03-18T16:16:24.956Z,12.91
2023-03-18T16:18:52.659Z,12.88
2023-03-18T16:21:20.696Z,12.84
2023-03-18T16:23:47.978Z,12.91
2023-03-18T16:26:16.155Z,12.98
2023-03-18T16:28:45.525Z,13.01
2023-03-18T16:31:13.072Z,12.80
2023-03-18T16:33:40.466Z,12.62
2023-03-18T16:36:07.602Z,12.48
2023-03-18T16:38:34.857Z,12.22
2023-03-18T16:41:01.707Z,12.25
2023-03-18T16:43:29.202Z,12.14
2023-03-18T16:46:00.580Z,11.74
2023-03-18T16:48:27.133Z,11.43
2023-03-18T16:50:55.507Z,11.55
2023-03-18T16:53:27.760Z,11.43
2023-03-18T16:55:59.730Z,11.40
2023-03-18T16:58:30.917Z,11.17
2023-03-18T17:00:57.869Z,10.88
2023-03-18T17:03:24.404Z,10.69
2023-03-18T17:05:50.923Z,10.72
2023-03-18T17:08:20.589Z,10.65
2023-03-18T17:10:49.315Z,10.16
2023-03-18T17:13:18.509Z,9.95
2023-03-18T17:15:45.065Z,9.75
2023-03-18T17:18:14.158Z,9.59
2023-03-18T17:20:41.513Z,9.44
2023-03-18T17:23:09.831Z,9.33
2023-03-18T17:25:36.405Z,9.12
2023-03-18T17:28:06.243Z,9.19
2023-03-18T17:30:34.959Z,9.00
2023-03-18T17:33:02.654Z,9.04
2023-03-18T17:35:29.455Z,9.07
2023-03-18T17:37:56.445Z,8.92
2023-03-18T17:40:23.566Z,8.65
2023-03-18T17:42:50.822Z,8.45
2023-03-18T17:45:23.150Z,8.42
2023-03-18T17:47:50.208Z,8.40
2023-03-18T17:50:18.410Z,8.17
2023-03-18T17:52:51.582Z,8.07
2023-03-18T17:55:24.344Z,7.89
2023-03-18T17:57:50.811Z,8.04
2023-03-18T18:00:24.984Z,7.80
2023-03-18T18:02:52.215Z,7.75
2023-03-18T18:05:19.905Z,7.70
2023-03-18T18:07:47.249Z,7.49
2023-03-18T18:10:15.460Z,7.30
2023-03-18T18:12:43.358Z,7.41
2023-03-18T18:15:25.492Z,7.10
2023-03-18T18:17:52.212Z,6.95
2023-03-18T18:20:19.708Z,7.04
2023-03-18T18:22:49.625Z,6.74
2023-03-18T18:25:19.979Z,6.53
2023-03-18T18:27:47.387Z,6.48
2023-03-18T18:30:18.248Z,6.49
2023-03-18T18:32:45.372Z,6.37
2023-03-18T18:35:18.784Z,6.20
2023-03-18T18:37:45.366Z,6.16
2023-03-18T18:40:13.503Z,6.00
2023-03-18T18:42:42.011Z,5.83
2023-03-18T18:45:16.472Z,5.71
2023-03-18T18:47:43.101Z,5.79
2023-03-18T18:50:16.548Z,5.79
2023-03-18T18:52:43.036Z,6.07
2023-03-18T18:55:11.249Z,6.31
2023-03-18T18:57:39.268Z,6.18
2023-03-18T19:00:11.364Z,5.95
2023-03-18T19:02:40.711Z,5.87
2023-03-18T19:05:08.110Z,5.76
2023-03-18T19:07:34.675Z,5.53
2023-03-18T19:10:01.650Z,5.78
2023-03-18T19:12:28.297Z,5.95
2023-03-18T19:14:55.147Z,5.72
2023-03-18T19:17:21.874Z,5.54
2023-03-18T19:19:48.375Z,5.58
2023-03-18T19:22:16.506Z,5.43
2023-03-18T19:24:43.768Z,5.51
2023-03-18T19:27:29.519Z,5.32
2023-03-18T19:29:59.797Z,4.99
2023-03-18T19:32:26.326Z,4.69
2023-03-18T19:34:53.551Z,4.62
2023-03-18T19:37:27.193Z,4.74
2023-03-18T19:39:57.072Z,4.66
2023-03-18T19:42:23.632Z,4.80
2023-03-18T19:44:50.137Z,4.81
2023-03-18T19:47:24.604Z,4.50
2023-03-18T19:49:51.153Z,4.69
2023-03-18T19:52:19.323Z,4.52
2023-03-18T19:54:46.653Z,4.65
2023-03-18T19:57:23.764Z,4.79
2023-03-18T19:59:51.273Z,4.58
2023-03-18T20:02:28.598Z,4.57
2023-03-18T20:04:56.555Z,4.23
2023-03-18T20:07:24.325Z,4.37
2023-03-18T20:09:51.308Z,4.35
2023-03-18T20:12:32.010Z,4.20
2023-03-18T20:14:58.568Z,4.23
2023-03-18T20:17:45.924Z,4.37
2023-03-18T20:20:25.961Z,4.30
2023-03-18T20:23:03.843Z,4.35
2023-03-18T20:25:38.743Z,4.15
2023-03-18T20:28:05.369Z,4.24
2023-03-18T20:30:33.150Z,4.04
2023-03-18T20:33:00.207Z,3.84
2023-03-18T20:35:28.326Z,4.04
2023-03-18T20:37:56.181Z,4.24
2023-03-18T20:40:24.753Z,4.13
2023-03-18T20:42:52.614Z,4.24
2023-03-18T20:45:19.464Z,4.18
2023-03-18T20:47:45.942Z,4.24
2023-03-18T20:50:14.020Z,4.19
2023-03-18T20:52:43.041Z,4.15
2023-03-18T20:55:21.018Z,4.00
2023-03-18T20:57:48.165Z,4.13
2023-03-18T21:00:19.173Z,3.95
2023-03-18T21:02:46.808Z,3.93
2023-03-18T21:05:13.481Z,3.89
2023-03-18T21:07:40.046Z,3.87
2023-03-18T21:10:07.472Z,3.86
2023-03-18T21:12:34.138Z,3.98
2023-03-18T21:15:00.686Z,3.74
2023-03-18T21:17:27.494Z,3.62
2023-03-18T21:20:00.739Z,3.77
2023-03-18T21:22:33.280Z,3.70
2023-03-18T21:24:59.777Z,4.06
2023-03-18T21:27:27.067Z,4.02
2023-03-18T21:29:54.657Z,3.84
2023-03-18T21:32:29.849Z,3.71
2023-03-18T21:34:56.841Z,3.76
2023-03-18T21:37:24.541Z,3.49
2023-03-18T21:39:51.394Z,3.54
2023-03-18T21:42:28.856Z,3.67
2023-03-18T21:44:56.135Z,3.60
2023-03-18T21:47:23.600Z,3.42
2023-03-18T21:49:50.232Z,3.39
2023-03-18T21:52:18.626Z,3.54
2023-03-18T21:54:45.838Z,3.72
2023-03-18T21:57:18.044Z,3.51
2023-03-18T21:59:45.778Z,3.50
2023-03-18T22:02:27.806Z,3.65
2023-03-18T22:04:55.144Z,3.42
2023-03-18T22:07:23.192Z,3.66
2023-03-18T22:09:49.846Z,3.70
2023-03-18T22:12:26.756Z,3.65
2023-03-18T22:14:53.781Z,3.42
2023-03-18T22:17:30.740Z,3.52
2023-03-18T22:19:57.864Z,3.55
2023-03-18T22:22:26.199Z,3.62
2023-03-18T22:24:52.748Z,3.40
2023-03-18T22:27:26.640Z,3.32
2023-03-18T22:29:54.200Z,3.16
2023-03-18T22:32:35.638Z,3.16
2023-03-18T22:35:02.788Z,3.07
2023-03-18T22:37:29.328Z,3.09
2023-03-18T22:39:56.061Z,3.00
2023-03-18T22:42:23.860Z,3.26
2023-03-18T22:44:50.492Z,3.32
2023-03-18T22:47:18.410Z,3.22
2023-03-18T22:49:44.875Z,3.05
2023-03-18T22:52:23.145Z,2.91
2023-03-18T22:54:52.526Z,2.86
2023-03-18T22:57:21.345Z,3.11
2023-03-18T22:59:47.892Z,2.82
2023-03-18T23:02:25.222Z,3.21
2023-03-18T23:04:52.035Z,2.99
2023-03-18T23:07:27.833Z,3.19
2023-03-18T23:09:57.264Z,3.01
2023-03-18T23:12:25.630Z,2.94
2023-03-18T23:14:52.929Z,3.20
2023-03-18T23:17:21.928Z,3.31
2023-03-18T23:19:48.882Z,2.93
2023-03-18T23:22:21.428Z,3.18
2023-03-18T23:24:48.070Z,3.24
2023-03-18T23:27:14.563Z,3.45
2023-03-18T23:29:41.045Z,3.66
2023-03-18T23:32:07.659Z,3.83
2023-03-18T23:34:34.137Z,3.78
2023-03-18T23:37:01.278Z,4.01
2023-03-18T23:39:27.802Z,3.25
2023-03-18T23:41:54.311Z,3.39
2023-03-18T23:44:21.052Z,3.14
2023-03-18T23:46:49.004Z,3.07
2023-03-18T23:49:15.690Z,3.11
2023-03-18T23:51:42.185Z,3.49
2023-03-18T23:54:09.189Z,3.67
2023-03-18T23:56:35.727Z,3.51
2023-03-18T23:59:02.302Z,3.13
